Terminal Aerodrome Forecast
Issued by NWS Tampa Bay Area, FL

Home | Current Version | Previous Version | Text Only | Print | Product List | Glossary Off
Versions: 1 2 3 4 5 6 7 8 9 10 11 12 13

000
FTUS42 KTBW 280500
TAFSRQ
TAF
KSRQ 280537Z 2806/2906 11007KT P6SM FEW250
     FM281800 11006KT P6SM VCTS FEW035CB SCT060
     FM282100 25006KT P6SM VCTS SCT035CB BKN060
     FM290000 30006KT P6SM VCSH BKN050
     FM290300 00000KT P6SM SCT050 BKN250=

USA.gov is the U.S. government's official web portal to all federal, state and local government web resources and services.